Accueil
METAR-TAF:

METAR-TAF

Aéroports :

Port Moresby, Papouasie-Nouvelle-Guinée

Aéroport de Port Moresby-Jacksons

latitude: 09-26S, longitude: 147-13E, altitude: 38 m

Observation

Le bulletin a été fait il y a 6 heures et 36 minutes, à 06:00 UTC
Vent 12 kt de sud
Température 31°C
Humidité 71%
Pression 1006 hPa
Visibilité 10 km ou plus
Quelques nuages à une hauteur de 2000 ft, Cumulonimbus.
Nuages fragmentés à une hauteur de 30000 ft

METAR: AYPY 230600Z 18012KT 9999 FEW020CB BKN300 31/25 Q1006 RMK/ HZ/ CB TO E

Heure: 22:36 (12:36 UTC)

Prévision

Le bulletin a été fait il y a 2 heures et 8 minutes, à 10:28 UTC
Prévision valable du 23 à 12 UTC au 24 à 12 UTC
Vent 3 kt de direction variable
Visibilité 10 km ou plus
Nuages épars à une hauteur de 3000 ft
Nuages fragmentés à une hauteur de 12000 ft

TAF: AYPY 231028Z 2312/2412 VRB03KT 9999 SCT030 BKN120

Observations et prévisions météorologiques de plus de 4000 aéroports (messages METAR et TAF).

Les stations disponibles sont représentées par des disques jaunes et rouges sur la carte.

Passer la souris dessus pour voir le nom de la station.

Cliquer dessus pour voir les observations et prévisions météorologiques.

Pour changer de carte: cliquez sur les boutons verts avec une croix noire pour zoomer, sur le bouton vert avec un tiret pour effectuer un zoom arrière, ou sur les flèches vertes pour les cartes adjacentes.


METAR-TAF: